createdAt,value
2018-12-06T00:01:14.931Z,98803.08
2018-12-06T00:03:44.831Z,98817.58
2018-12-06T00:06:15.631Z,98817.80
2018-12-06T00:08:45.455Z,98825.50
2018-12-06T00:11:15.253Z,98828.00
2018-12-06T00:13:45.105Z,98827.20
2018-12-06T00:16:15.692Z,98816.98
2018-12-06T00:18:56.634Z,98810.80
2018-12-06T00:21:26.472Z,98818.05
2018-12-06T00:23:56.296Z,98809.75
2018-12-06T00:26:26.161Z,98806.20
2018-12-06T00:28:56.001Z,98806.69
2018-12-06T00:31:25.835Z,98801.00
2018-12-06T00:33:55.687Z,98796.61
2018-12-06T00:36:25.490Z,98790.56
2018-12-06T00:38:55.297Z,98783.23
2018-12-06T00:41:25.101Z,98773.58
2018-12-06T00:43:54.918Z,98760.48
2018-12-06T00:46:24.749Z,98757.23
2018-12-06T00:48:54.757Z,98763.23
2018-12-06T00:51:24.549Z,98770.33
2018-12-06T00:53:54.367Z,98764.52
2018-12-06T00:56:24.201Z,98775.22
2018-12-06T00:58:53.981Z,98778.14
2018-12-06T01:01:23.788Z,98768.98
2018-12-06T01:03:53.744Z,98771.73
2018-12-06T01:06:23.666Z,98767.19
2018-12-06T01:08:53.457Z,98785.17
2018-12-06T01:11:23.353Z,98770.41
2018-12-06T01:13:53.181Z,98765.95
2018-12-06T01:16:23.113Z,98759.03
2018-12-06T01:18:52.953Z,98746.41
2018-12-06T01:21:22.808Z,98741.80
2018-12-06T01:23:52.661Z,98733.77
2018-12-06T01:26:22.441Z,98740.85
2018-12-06T01:28:52.256Z,98731.66
2018-12-06T01:31:22.314Z,98724.59
2018-12-06T01:33:53.178Z,98725.67
2018-12-06T01:36:23.044Z,98723.97
2018-12-06T01:38:53.161Z,98722.66
2018-12-06T01:41:23.206Z,98733.95
2018-12-06T01:43:53.022Z,98737.73
2018-12-06T01:46:22.773Z,98743.55
2018-12-06T01:48:52.626Z,98751.09
2018-12-06T01:51:22.527Z,98759.33
2018-12-06T01:53:52.336Z,98781.73
2018-12-06T01:56:22.148Z,98783.06
2018-12-06T01:58:52.007Z,98787.16
2018-12-06T02:01:21.864Z,98796.39
2018-12-06T02:03:51.845Z,98801.77
2018-12-06T02:06:21.720Z,98799.94
2018-12-06T02:08:51.499Z,98803.72
2018-12-06T02:11:21.344Z,98809.80
2018-12-06T02:13:51.251Z,98812.73
2018-12-06T02:16:21.084Z,98813.90
2018-12-06T02:18:50.855Z,98809.28
2018-12-06T02:21:20.705Z,98810.03
2018-12-06T02:23:50.564Z,98819.59
2018-12-06T02:26:20.581Z,98811.19
2018-12-06T02:28:50.681Z,98807.36
2018-12-06T02:31:20.554Z,98817.80
2018-12-06T02:33:50.361Z,98808.11
2018-12-06T02:36:20.315Z,98804.56
2018-12-06T02:38:50.064Z,98832.38
2018-12-06T02:41:19.906Z,98826.16
2018-12-06T02:43:49.709Z,98836.11
2018-12-06T02:46:19.564Z,98829.80
2018-12-06T02:48:49.330Z,98816.11
2018-12-06T02:51:19.238Z,98821.80
2018-12-06T02:53:49.048Z,98826.34
2018-12-06T02:56:18.889Z,98824.97
2018-12-06T02:58:48.681Z,98815.59
2018-12-06T03:01:18.561Z,98815.52
2018-12-06T03:03:48.414Z,98814.25
2018-12-06T03:06:18.312Z,98807.78
2018-12-06T03:08:48.144Z,98813.70
2018-12-06T03:11:17.989Z,98817.44
2018-12-06T03:13:47.762Z,98823.36
2018-12-06T03:16:17.601Z,98829.64
2018-12-06T03:18:47.390Z,98837.38
2018-12-06T03:21:17.423Z,98841.11
2018-12-06T03:23:47.224Z,98846.94
2018-12-06T03:26:17.058Z,98844.18
2018-12-06T03:28:46.840Z,98845.20
2018-12-06T03:31:16.937Z,98847.33
2018-12-06T03:33:46.795Z,98850.03
2018-12-06T03:36:16.648Z,98845.83
2018-12-06T03:38:46.405Z,98837.47
2018-12-06T03:41:16.273Z,98841.69
2018-12-06T03:43:46.025Z,98849.98
2018-12-06T03:46:15.862Z,98856.37
2018-12-06T03:48:45.645Z,98852.77
2018-12-06T03:51:15.498Z,98849.75
2018-12-06T03:53:45.296Z,98855.44
2018-12-06T03:56:15.106Z,98861.37
2018-12-06T03:58:44.909Z,98860.31
2018-12-06T04:01:14.758Z,98859.43
2018-12-06T04:03:44.597Z,98862.00
2018-12-06T04:06:14.462Z,98867.60
2018-12-06T04:08:44.248Z,98874.89
2018-12-06T04:11:14.111Z,98866.17
2018-12-06T04:13:43.881Z,98858.73
2018-12-06T04:16:13.727Z,98861.05
2018-12-06T04:18:43.526Z,98858.39
2018-12-06T04:21:13.345Z,98860.56
2018-12-06T04:23:43.184Z,98854.97
2018-12-06T04:26:13.031Z,98863.05
2018-12-06T04:28:42.958Z,98854.66
2018-12-06T04:31:12.807Z,98851.63
2018-12-06T04:33:44.657Z,98864.83
2018-12-06T04:36:14.480Z,98864.87
2018-12-06T04:38:44.268Z,98862.81
2018-12-06T04:41:14.105Z,98873.20
2018-12-06T04:43:43.888Z,98867.60
2018-12-06T04:46:13.734Z,98862.19
2018-12-06T04:48:43.582Z,98857.22
2018-12-06T04:51:13.461Z,98856.52
2018-12-06T04:53:43.318Z,98859.45
2018-12-06T04:56:13.231Z,98860.91
2018-12-06T04:58:43.089Z,98861.18
2018-12-06T05:01:12.911Z,98865.12
2018-12-06T05:03:42.816Z,98871.92
2018-12-06T05:06:12.768Z,98873.05
2018-12-06T05:08:42.542Z,98871.66
2018-12-06T05:11:12.428Z,98871.17
2018-12-06T05:13:42.274Z,98870.81
2018-12-06T05:16:12.125Z,98870.77
2018-12-06T05:18:41.940Z,98869.89
2018-12-06T05:21:11.824Z,98864.73
2018-12-06T05:23:41.712Z,98866.16
2018-12-06T05:26:11.557Z,98861.32
2018-12-06T05:28:41.363Z,98859.41
2018-12-06T05:31:11.221Z,98854.57
2018-12-06T05:33:41.069Z,98850.83
2018-12-06T05:36:10.908Z,98853.80
2018-12-06T05:38:41.783Z,98853.41
2018-12-06T05:41:11.668Z,98854.83
2018-12-06T05:43:41.450Z,98856.70
2018-12-06T05:46:11.349Z,98858.30
2018-12-06T05:48:41.240Z,98855.91
2018-12-06T05:51:11.106Z,98852.69
2018-12-06T05:53:40.914Z,98864.38
2018-12-06T05:56:10.750Z,98856.84
2018-12-06T06:01:59.033Z,98868.78
2018-12-06T06:04:28.854Z,98876.78
2018-12-06T06:07:02.018Z,98882.02
2018-12-06T06:09:31.801Z,98881.53
2018-12-06T06:12:01.660Z,98871.84
2018-12-06T06:14:31.445Z,98879.77
2018-12-06T06:17:01.301Z,98880.04
2018-12-06T06:19:31.170Z,98875.31
2018-12-06T06:22:00.993Z,98888.48
2018-12-06T06:24:30.795Z,98883.72
2018-12-06T06:27:00.635Z,98887.19
2018-12-06T06:29:30.442Z,98878.08
2018-12-06T06:32:00.270Z,98892.83
2018-12-06T06:34:30.066Z,98889.71
2018-12-06T06:36:59.879Z,98893.22
2018-12-06T06:39:29.753Z,98900.64
2018-12-06T06:41:59.614Z,98897.84
2018-12-06T06:44:29.457Z,98904.91
2018-12-06T06:46:59.341Z,98898.24
2018-12-06T06:49:29.141Z,98906.60
2018-12-06T06:51:59.035Z,98907.36
2018-12-06T06:54:28.840Z,98908.69
2018-12-06T06:56:58.683Z,98911.98
2018-12-06T06:59:28.554Z,98921.22
2018-12-06T07:01:58.530Z,98917.01
2018-12-06T07:04:29.451Z,98921.64
2018-12-06T07:07:00.301Z,98928.57
2018-12-06T07:09:30.085Z,98933.32
2018-12-06T07:11:59.872Z,98936.48
2018-12-06T07:14:29.634Z,98943.20
2018-12-06T07:16:59.425Z,98940.70
2018-12-06T07:19:29.181Z,98939.85
2018-12-06T07:21:58.955Z,98938.62
2018-12-06T07:24:28.956Z,98949.64
2018-12-06T07:26:58.756Z,98954.13
2018-12-06T07:29:28.590Z,98958.62
2018-12-06T07:31:58.535Z,98961.64
2018-12-06T07:34:28.385Z,98972.58
2018-12-06T07:36:58.425Z,98980.49
2018-12-06T07:39:28.249Z,98989.61
2018-12-06T07:41:58.183Z,98989.78
2018-12-06T07:44:28.254Z,98999.91
2018-12-06T07:47:02.010Z,98993.61
2018-12-06T07:50:05.656Z,98989.03
2018-12-06T07:52:37.003Z,98995.70
2018-12-06T07:55:07.389Z,98995.34
2018-12-06T07:57:38.438Z,98997.25
2018-12-06T08:00:09.525Z,99003.52
2018-12-06T08:02:39.422Z,99010.62
2018-12-06T08:05:10.267Z,99017.65
2018-12-06T08:07:40.146Z,99006.05
2018-12-06T08:10:10.521Z,99010.41
2018-12-06T08:12:40.532Z,99009.73
2018-12-06T08:15:10.554Z,99003.48
2018-12-06T08:17:40.597Z,99003.00
2018-12-06T08:20:10.587Z,99006.55
2018-12-06T08:22:40.472Z,99005.05
2018-12-06T08:25:10.279Z,99005.31
2018-12-06T08:27:40.084Z,99014.44
2018-12-06T08:30:09.973Z,99016.03
2018-12-06T08:32:39.813Z,99019.94
2018-12-06T08:35:10.312Z,99029.06
2018-12-06T08:37:40.246Z,99035.16
2018-12-06T08:40:10.037Z,99041.48
2018-12-06T08:42:45.702Z,99052.55
2018-12-06T08:45:11.925Z,99056.24
2018-12-06T08:47:41.792Z,99062.52
2018-12-06T08:50:11.767Z,99064.61
2018-12-06T08:52:41.565Z,99066.58
2018-12-06T08:55:11.364Z,99064.17
2018-12-06T08:57:41.201Z,99064.17
2018-12-06T09:00:12.132Z,99066.00
2018-12-06T09:02:43.089Z,99069.15
2018-12-06T09:05:13.006Z,99078.40
2018-12-06T09:07:42.927Z,99075.02
2018-12-06T09:10:12.899Z,99070.05
2018-12-06T09:12:42.832Z,99073.20
2018-12-06T09:15:12.756Z,99064.69
2018-12-06T09:17:42.925Z,99070.38
2018-12-06T09:20:12.921Z,99072.77
2018-12-06T09:22:42.736Z,99078.18
2018-12-06T09:25:12.667Z,99088.41
2018-12-06T09:27:42.565Z,99094.83
2018-12-06T09:30:12.338Z,99105.20
2018-12-06T09:32:42.199Z,99107.64
2018-12-06T09:35:12.069Z,99114.33
2018-12-06T09:37:42.017Z,99120.74
2018-12-06T09:40:11.826Z,99112.86
2018-12-06T09:42:41.867Z,99112.14
2018-12-06T09:45:11.809Z,99113.73
2018-12-06T09:47:41.677Z,99119.61
2018-12-06T09:50:11.470Z,99116.55
2018-12-06T09:52:41.301Z,99114.79
2018-12-06T09:55:11.085Z,99114.81
2018-12-06T09:57:40.941Z,99125.28
2018-12-06T10:00:13.565Z,99120.62
2018-12-06T10:02:44.443Z,99111.85
2018-12-06T10:05:14.292Z,99102.20
2018-12-06T10:07:44.192Z,99104.21
2018-12-06T10:10:14.045Z,99104.23
2018-12-06T10:12:43.877Z,99102.10
2018-12-06T10:15:13.865Z,99092.94
2018-12-06T10:17:43.828Z,99093.37
2018-12-06T10:20:13.845Z,99089.76
2018-12-06T10:22:43.773Z,99100.98
2018-12-06T10:25:13.681Z,99092.03
2018-12-06T10:27:43.518Z,99095.59
2018-12-06T10:30:13.425Z,99095.25
2018-12-06T10:32:43.313Z,99102.20
2018-12-06T10:35:13.203Z,99086.08
2018-12-06T10:37:43.021Z,99089.97
2018-12-06T10:40:12.869Z,99091.45
2018-12-06T10:42:42.780Z,99098.28
2018-12-06T10:45:12.816Z,99095.91
2018-12-06T10:47:43.817Z,99101.53
2018-12-06T10:50:14.656Z,99104.43
2018-12-06T10:52:44.481Z,99101.28
2018-12-06T10:55:14.301Z,99102.86
2018-12-06T10:57:44.084Z,99107.22
2018-12-06T11:01:17.261Z,99098.81
2018-12-06T11:03:52.317Z,99113.91
2018-12-06T11:06:22.160Z,99116.59
2018-12-06T11:08:52.010Z,99124.28
2018-12-06T11:11:21.973Z,99113.34
2018-12-06T11:13:51.965Z,99114.94
2018-12-06T11:16:21.817Z,99116.17
2018-12-06T11:18:51.635Z,99118.75
2018-12-06T11:21:21.641Z,99121.08
2018-12-06T11:23:51.698Z,99122.30
2018-12-06T11:26:21.576Z,99128.03
2018-12-06T11:28:51.404Z,99127.80
2018-12-06T11:31:21.308Z,99126.70
2018-12-06T11:33:51.136Z,99131.93
2018-12-06T11:36:21.231Z,99118.42
2018-12-06T11:38:51.353Z,99123.16
2018-12-06T11:41:21.125Z,99122.55
2018-12-06T11:43:51.012Z,99120.24
2018-12-06T11:46:20.901Z,99121.47
2018-12-06T11:48:50.737Z,99118.52
2018-12-06T11:51:20.641Z,99115.10
2018-12-06T11:53:50.970Z,99112.92
2018-12-06T11:56:20.872Z,99115.94
2018-12-06T11:58:50.758Z,99113.89
2018-12-06T12:01:20.593Z,99117.53
2018-12-06T12:03:50.421Z,99112.05
2018-12-06T12:06:20.225Z,99120.70
2018-12-06T12:08:50.061Z,99121.30
2018-12-06T12:11:19.945Z,99122.64
2018-12-06T12:13:49.745Z,99117.91
2018-12-06T12:16:19.681Z,99115.57
2018-12-06T12:18:49.547Z,99113.82
2018-12-06T12:21:19.405Z,99119.31
2018-12-06T12:23:49.215Z,99112.45
2018-12-06T12:26:18.992Z,99107.88
2018-12-06T12:28:48.872Z,99111.96
2018-12-06T12:31:18.876Z,99109.05
2018-12-06T12:33:48.726Z,99117.45
2018-12-06T12:36:18.704Z,99113.42
2018-12-06T12:38:48.511Z,99111.08
2018-12-06T12:41:18.389Z,99107.67
2018-12-06T12:43:48.177Z,99103.22
2018-12-06T12:46:18.021Z,99101.84
2018-12-06T12:48:48.977Z,99101.86
2018-12-06T12:51:18.821Z,99094.52
2018-12-06T12:53:48.717Z,99095.86
2018-12-06T12:56:18.532Z,99091.73
2018-12-06T12:58:48.340Z,99088.21
2018-12-06T13:01:18.195Z,99094.09
2018-12-06T13:03:48.076Z,99095.25
2018-12-06T13:06:17.892Z,99094.43
2018-12-06T13:08:47.892Z,99091.14
2018-12-06T13:11:18.025Z,99085.45
2018-12-06T13:13:47.814Z,99081.27
2018-12-06T13:16:17.701Z,99090.56
2018-12-06T13:18:47.656Z,99088.38
2018-12-06T13:21:17.653Z,99094.87
2018-12-06T13:23:47.497Z,99097.52
2018-12-06T13:26:17.268Z,99090.92
2018-12-06T13:28:47.176Z,99095.40
2018-12-06T13:31:17.027Z,99091.48
2018-12-06T13:33:46.847Z,99094.52
2018-12-06T13:36:16.648Z,99088.17
2018-12-06T13:38:46.574Z,99089.14
2018-12-06T13:41:16.583Z,99096.47
2018-12-06T13:43:46.345Z,99094.87
2018-12-06T13:47:18.768Z,99092.86
2018-12-06T13:49:48.590Z,99095.44
2018-12-06T13:52:18.437Z,99098.22
2018-12-06T13:54:48.340Z,99089.34
2018-12-06T13:57:19.803Z,99093.77
2018-12-06T13:59:49.871Z,99095.02
2018-12-06T14:02:19.837Z,99096.98
2018-12-06T14:04:49.702Z,99100.88
2018-12-06T14:07:19.636Z,99099.92
2018-12-06T14:09:49.448Z,99105.05
2018-12-06T14:12:19.560Z,99102.39
2018-12-06T14:14:50.127Z,99103.86
2018-12-06T14:17:20.222Z,99106.33
2018-12-06T14:19:50.066Z,99108.53
2018-12-06T14:22:20.129Z,99106.55
2018-12-06T14:24:49.987Z,99107.80
2018-12-06T14:27:19.877Z,99110.95
2018-12-06T14:29:49.920Z,99109.52
2018-12-06T14:32:19.811Z,99112.91
2018-12-06T14:34:49.764Z,99115.34
2018-12-06T14:37:19.846Z,99123.04
2018-12-06T14:39:49.688Z,99127.90
2018-12-06T14:42:19.673Z,99123.66
2018-12-06T14:44:49.517Z,99132.05
2018-12-06T14:47:19.507Z,99124.23
2018-12-06T14:49:49.344Z,99122.89
2018-12-06T14:52:19.394Z,99122.29
2018-12-06T14:54:49.276Z,99122.89
2018-12-06T14:57:19.158Z,99130.08
2018-12-06T14:59:48.972Z,99128.74
2018-12-06T15:02:18.820Z,99118.38
2018-12-06T15:04:48.734Z,99120.47
2018-12-06T15:07:18.682Z,99122.92
2018-12-06T15:09:48.522Z,99129.75
2018-12-06T15:12:18.452Z,99139.25
2018-12-06T15:14:48.294Z,99134.25
2018-12-06T15:17:18.249Z,99131.69
2018-12-06T15:19:48.112Z,99124.56
2018-12-06T15:22:17.985Z,99120.39
2018-12-06T15:24:47.849Z,99130.54
2018-12-06T15:27:17.977Z,99135.46
2018-12-06T15:29:48.108Z,99143.20
2018-12-06T15:32:18.024Z,99155.16
2018-12-06T15:34:47.917Z,99146.16
2018-12-06T15:37:18.996Z,99154.02
2018-12-06T15:39:48.874Z,99148.82
2018-12-06T15:42:18.869Z,99153.70
2018-12-06T15:44:48.809Z,99150.42
2018-12-06T15:47:18.901Z,99152.72
2018-12-06T15:49:48.820Z,99156.73
2018-12-06T15:52:18.820Z,99160.98
2018-12-06T15:54:48.633Z,99166.34
2018-12-06T15:57:18.548Z,99166.84
2018-12-06T15:59:48.353Z,99173.05
2018-12-06T16:02:18.201Z,99175.71
2018-12-06T16:04:48.121Z,99177.53
2018-12-06T16:07:18.013Z,99174.42
2018-12-06T16:09:47.832Z,99174.12
2018-12-06T16:12:17.855Z,99168.77
2018-12-06T16:14:47.761Z,99140.11
2018-12-06T16:17:17.679Z,99148.41
2018-12-06T16:19:47.595Z,99161.02
2018-12-06T16:22:17.448Z,99148.44
2018-12-06T16:24:47.341Z,99155.13
2018-12-06T16:27:17.929Z,99166.09
2018-12-06T16:29:51.536Z,99156.78
2018-12-06T16:32:21.225Z,99158.56
2018-12-06T16:34:51.052Z,99162.83
2018-12-06T16:37:20.891Z,99160.84
2018-12-06T16:39:50.832Z,99163.36
2018-12-06T16:42:20.733Z,99177.21
2018-12-06T16:44:51.260Z,99187.02
2018-12-06T16:47:21.200Z,99190.57
2018-12-06T16:49:51.197Z,99192.63
2018-12-06T16:52:21.112Z,99194.45
2018-12-06T16:54:52.320Z,99195.12
2018-12-06T16:57:22.135Z,99194.44
2018-12-06T16:59:51.936Z,99193.63
2018-12-06T17:02:21.887Z,99190.08
2018-12-06T17:04:51.697Z,99196.02
2018-12-06T17:07:22.084Z,99200.55
2018-12-06T17:09:52.155Z,99199.14
2018-12-06T17:12:21.952Z,99204.75
2018-12-06T17:14:51.965Z,99204.78
2018-12-06T17:17:21.820Z,99206.53
2018-12-06T17:19:51.656Z,99209.60
2018-12-06T17:22:23.477Z,99204.58
2018-12-06T17:24:53.385Z,99212.55
2018-12-06T17:27:23.249Z,99212.66
2018-12-06T17:29:54.017Z,99222.37
2018-12-06T17:32:24.161Z,99235.92
2018-12-06T17:34:54.009Z,99245.09
2018-12-06T17:37:24.917Z,99240.58
2018-12-06T17:39:54.972Z,99253.33
2018-12-06T17:42:27.201Z,99256.56
2018-12-06T17:44:57.385Z,99246.58
2018-12-06T17:47:27.674Z,99250.23
2018-12-06T17:49:57.657Z,99252.02
2018-12-06T17:52:27.505Z,99252.63
2018-12-06T17:54:57.528Z,99258.28
2018-12-06T17:57:27.393Z,99260.25
2018-12-06T17:59:57.530Z,99260.48
2018-12-06T18:02:27.574Z,99258.88
2018-12-06T18:04:57.589Z,99259.50
2018-12-06T18:07:27.507Z,99254.55
2018-12-06T18:09:57.640Z,99258.39
2018-12-06T18:12:27.646Z,99256.20
2018-12-06T18:14:58.898Z,99261.64
2018-12-06T18:17:29.080Z,99258.34
2018-12-06T18:19:59.152Z,99260.93
2018-12-06T18:22:29.112Z,99255.09
2018-12-06T18:24:59.081Z,99257.86
2018-12-06T18:27:29.187Z,99258.67
2018-12-06T18:29:59.023Z,99261.34
2018-12-06T18:32:29.096Z,99256.13
2018-12-06T18:34:58.929Z,99253.71
2018-12-06T18:37:28.793Z,99251.30
2018-12-06T18:39:58.954Z,99253.71
2018-12-06T18:42:28.847Z,99252.20
2018-12-06T18:44:58.950Z,99253.54
2018-12-06T18:47:28.849Z,99250.11
2018-12-06T18:49:59.605Z,99252.20
2018-12-06T18:52:29.517Z,99252.91
2018-12-06T18:54:59.503Z,99251.45
2018-12-06T18:57:29.746Z,99259.11
2018-12-06T18:59:59.900Z,99247.66
2018-12-06T19:02:29.884Z,99251.00
2018-12-06T19:04:59.957Z,99251.36
2018-12-06T19:07:31.017Z,99248.59
2018-12-06T19:10:00.973Z,99249.70
2018-12-06T19:12:30.818Z,99250.19
2018-12-06T19:15:00.716Z,99253.00
2018-12-06T19:17:30.694Z,99250.14
2018-12-06T19:20:00.626Z,99244.12
2018-12-06T19:22:30.490Z,99245.67
2018-12-06T19:25:00.329Z,99245.02
2018-12-06T19:27:30.252Z,99246.58
2018-12-06T19:30:00.505Z,99234.02
2018-12-06T19:32:30.508Z,99241.29
2018-12-06T19:35:00.996Z,99242.27
2018-12-06T19:37:31.676Z,99237.98
2018-12-06T19:40:03.737Z,99242.71
2018-12-06T19:42:38.770Z,99237.09
2018-12-06T19:45:06.865Z,99236.61
2018-12-06T19:47:36.789Z,99236.22
2018-12-06T19:50:07.361Z,99231.09
2018-12-06T19:52:37.314Z,99229.19
2018-12-06T19:55:07.462Z,99223.48
2018-12-06T19:57:37.522Z,99211.68
2018-12-06T20:00:08.492Z,99215.07
2018-12-06T20:02:38.703Z,99211.68
2018-12-06T20:05:08.939Z,99206.52
2018-12-06T20:07:39.027Z,99211.28
2018-12-06T20:10:10.590Z,99209.37
2018-12-06T20:12:41.454Z,99207.23
2018-12-06T20:15:11.768Z,99212.57
2018-12-06T20:17:43.049Z,99207.16
2018-12-06T20:20:13.817Z,99211.21
2018-12-06T20:22:43.945Z,99212.16
2018-12-06T20:25:14.917Z,99214.78
2018-12-06T20:27:44.946Z,99210.19
2018-12-06T20:30:14.904Z,99211.16
2018-12-06T20:32:44.807Z,99209.02
2018-12-06T20:35:14.757Z,99210.70
2018-12-06T20:37:45.308Z,99206.92
2018-12-06T20:40:15.202Z,99203.33
2018-12-06T20:42:45.220Z,99200.79
2018-12-06T20:45:15.251Z,99198.38
2018-12-06T20:47:45.197Z,99199.94
2018-12-06T20:50:15.878Z,99204.14
2018-12-06T20:52:46.968Z,99206.72
2018-12-06T20:55:17.005Z,99212.91
2018-12-06T20:57:47.444Z,99211.31
2018-12-06T21:00:17.271Z,99217.09
2018-12-06T21:02:47.392Z,99206.44
2018-12-06T21:05:17.373Z,99207.87
2018-12-06T21:07:47.236Z,99203.82
2018-12-06T21:10:17.349Z,99212.11
2018-12-06T21:12:47.371Z,99202.97
2018-12-06T21:15:17.778Z,99205.48
2018-12-06T21:17:48.108Z,99197.51
2018-12-06T21:20:18.534Z,99205.14
2018-12-06T21:22:51.913Z,99200.77
2018-12-06T21:25:22.503Z,99201.52
2018-12-06T21:27:52.388Z,99196.53
2018-12-06T21:30:22.304Z,99186.81
2018-12-06T21:32:54.128Z,99189.95
2018-12-06T21:35:24.030Z,99187.98
2018-12-06T21:37:54.206Z,99178.37
2018-12-06T21:40:24.316Z,99177.52
2018-12-06T21:42:55.200Z,99171.87
2018-12-06T21:45:25.056Z,99174.55
2018-12-06T21:47:55.054Z,99176.15
2018-12-06T21:50:24.855Z,99181.31
2018-12-06T21:52:54.633Z,99186.92
2018-12-06T21:55:24.507Z,99181.00
2018-12-06T21:57:54.457Z,99183.88
2018-12-06T22:00:24.318Z,99192.58
2018-12-06T22:02:55.050Z,99188.43
2018-12-06T22:05:24.908Z,99186.44
2018-12-06T22:07:54.908Z,99193.12
2018-12-06T22:10:24.898Z,99187.45
2018-12-06T22:12:54.725Z,99186.66
2018-12-06T22:15:24.592Z,99190.77
2018-12-06T22:17:54.654Z,99189.50
2018-12-06T22:20:24.497Z,99187.28
2018-12-06T22:22:54.470Z,99193.52
2018-12-06T22:25:24.324Z,99183.19
2018-12-06T22:27:54.243Z,99179.09
2018-12-06T22:30:24.118Z,99182.43
2018-12-06T22:32:54.016Z,99173.20
2018-12-06T22:35:23.963Z,99178.05
2018-12-06T22:37:53.774Z,99178.05
2018-12-06T22:40:23.733Z,99188.69
2018-12-06T22:42:53.603Z,99194.45
2018-12-06T22:46:27.952Z,99184.78
2018-12-06T22:48:57.951Z,99188.00
2018-12-06T22:51:27.761Z,99187.55
2018-12-06T22:53:57.829Z,99190.40
2018-12-06T22:56:27.765Z,99193.83
2018-12-06T22:58:57.605Z,99193.52
2018-12-06T23:01:32.964Z,99203.98
2018-12-06T23:04:02.974Z,99192.05
2018-12-06T23:06:32.903Z,99195.47
2018-12-06T23:09:04.330Z,99196.45
2018-12-06T23:11:34.265Z,99198.15
2018-12-06T23:14:04.812Z,99194.50
2018-12-06T23:16:34.661Z,99199.52
2018-12-06T23:19:04.645Z,99198.67
2018-12-06T23:21:34.484Z,99195.30
2018-12-06T23:24:04.365Z,99198.70
2018-12-06T23:26:34.205Z,99203.82
2018-12-06T23:29:04.413Z,99192.28
2018-12-06T23:31:34.283Z,99196.12
2018-12-06T23:34:04.078Z,99196.34
2018-12-06T23:36:34.013Z,99191.55
2018-12-06T23:39:05.109Z,99187.54
2018-12-06T23:41:35.956Z,99180.34
2018-12-06T23:44:05.786Z,99181.00
2018-12-06T23:46:35.568Z,99181.36
2018-12-06T23:49:05.455Z,99169.50
2018-12-06T23:51:37.834Z,99171.09
2018-12-06T23:54:07.647Z,99171.97
2018-12-06T23:56:38.556Z,99159.70
2018-12-06T23:59:08.410Z,99158.76
